sensor_id;sensor_type;location;lat;lon;timestamp;pressure;altitude;pressure_sealevel;temperature;humidity
23899;BME280;20544;50.018;20.010;2023-06-26T00:02:18;98833.70;;;17.06;100.00
23899;BME280;20544;50.018;20.010;2023-06-26T00:05:35;98840.32;;;17.03;100.00
23899;BME280;20544;50.018;20.010;2023-06-26T00:08:52;98838.10;;;17.00;100.00
23899;BME280;20544;50.018;20.010;2023-06-26T00:12:11;98837.73;;;16.96;100.00
23899;BME280;20544;50.018;20.010;2023-06-26T00:15:28;98834.26;;;16.89;100.00
23899;BME280;20544;50.018;20.010;2023-06-26T00:18:45;98849.38;;;16.84;100.00
23899;BME280;20544;50.018;20.010;2023-06-26T00:22:03;98845.55;;;16.73;100.00
23899;BME280;20544;50.018;20.010;2023-06-26T00:25:20;98836.53;;;16.67;100.00
23899;BME280;20544;50.018;20.010;2023-06-26T00:28:37;98838.66;;;16.58;100.00
23899;BME280;20544;50.018;20.010;2023-06-26T00:31:54;98831.52;;;16.52;100.00
23899;BME280;20544;50.018;20.010;2023-06-26T00:35:15;98834.03;;;16.47;100.00
23899;BME280;20544;50.018;20.010;2023-06-26T00:38:34;98837.58;;;16.41;100.00
23899;BME280;20544;50.018;20.010;2023-06-26T00:41:51;98833.55;;;16.31;100.00
23899;BME280;20544;50.018;20.010;2023-06-26T00:45:08;98838.52;;;16.28;100.00
23899;BME280;20544;50.018;20.010;2023-06-26T00:48:26;98831.30;;;16.28;100.00
23899;BME280;20544;50.018;20.010;2023-06-26T00:51:44;98828.78;;;16.33;100.00
23899;BME280;20544;50.018;20.010;2023-06-26T00:55:02;98829.23;;;16.30;100.00
23899;BME280;20544;50.018;20.010;2023-06-26T00:58:19;98827.42;;;16.24;100.00
23899;BME280;20544;50.018;20.010;2023-06-26T01:01:37;98829.72;;;16.21;100.00
23899;BME280;20544;50.018;20.010;2023-06-26T01:04:54;98829.33;;;16.17;100.00
23899;BME280;20544;50.018;20.010;2023-06-26T01:08:14;98829.10;;;16.18;100.00
23899;BME280;20544;50.018;20.010;2023-06-26T01:11:32;98824.10;;;16.29;100.00
23899;BME280;20544;50.018;20.010;2023-06-26T01:14:48;98826.30;;;16.39;100.00
23899;BME280;20544;50.018;20.010;2023-06-26T01:18:06;98822.13;;;16.43;100.00
23899;BME280;20544;50.018;20.010;2023-06-26T01:21:22;98821.26;;;16.49;100.00
23899;BME280;20544;50.018;20.010;2023-06-26T01:24:44;98827.38;;;16.56;100.00
23899;BME280;20544;50.018;20.010;2023-06-26T01:28:07;98822.56;;;16.65;100.00
23899;BME280;20544;50.018;20.010;2023-06-26T01:31:27;98814.91;;;16.69;100.00
23899;BME280;20544;50.018;20.010;2023-06-26T01:34:46;98821.53;;;16.66;100.00
23899;BME280;20544;50.018;20.010;2023-06-26T01:38:17;98821.30;;;16.68;100.00
23899;BME280;20544;50.018;20.010;2023-06-26T01:41:38;98808.56;;;16.63;100.00
23899;BME280;20544;50.018;20.010;2023-06-26T01:44:57;98811.02;;;16.64;100.00
23899;BME280;20544;50.018;20.010;2023-06-26T01:48:19;98800.77;;;16.61;100.00
23899;BME280;20544;50.018;20.010;2023-06-26T01:51:41;98803.48;;;16.55;100.00
23899;BME280;20544;50.018;20.010;2023-06-26T01:55:05;98803.70;;;16.53;100.00
23899;BME280;20544;50.018;20.010;2023-06-26T01:58:26;98807.38;;;16.59;100.00
23899;BME280;20544;50.018;20.010;2023-06-26T02:01:44;98799.27;;;16.65;100.00
23899;BME280;20544;50.018;20.010;2023-06-26T02:05:00;98803.81;;;16.65;100.00
23899;BME280;20544;50.018;20.010;2023-06-26T02:08:18;98801.34;;;16.63;100.00
23899;BME280;20544;50.018;20.010;2023-06-26T02:11:36;98801.14;;;16.65;100.00
23899;BME280;20544;50.018;20.010;2023-06-26T02:14:53;98814.30;;;16.66;100.00
23899;BME280;20544;50.018;20.010;2023-06-26T02:18:10;98803.86;;;16.58;100.00
23899;BME280;20544;50.018;20.010;2023-06-26T02:21:27;98796.71;;;16.52;100.00
23899;BME280;20544;50.018;20.010;2023-06-26T02:24:47;98795.10;;;16.51;100.00
23899;BME280;20544;50.018;20.010;2023-06-26T02:28:06;98800.11;;;16.41;100.00
23899;BME280;20544;50.018;20.010;2023-06-26T02:31:23;98804.70;;;16.33;100.00
23899;BME280;20544;50.018;20.010;2023-06-26T02:34:40;98808.86;;;16.29;100.00
23899;BME280;20544;50.018;20.010;2023-06-26T02:37:57;98806.63;;;16.26;100.00
23899;BME280;20544;50.018;20.010;2023-06-26T02:41:18;98809.31;;;16.26;100.00
23899;BME280;20544;50.018;20.010;2023-06-26T02:44:35;98811.38;;;16.24;100.00
23899;BME280;20544;50.018;20.010;2023-06-26T02:47:52;98809.50;;;16.25;100.00
23899;BME280;20544;50.018;20.010;2023-06-26T02:51:11;98808.92;;;16.23;100.00
23899;BME280;20544;50.018;20.010;2023-06-26T02:54:28;98810.17;;;16.20;100.00
23899;BME280;20544;50.018;20.010;2023-06-26T02:57:45;98808.95;;;16.16;100.00
23899;BME280;20544;50.018;20.010;2023-06-26T03:01:02;98805.70;;;16.14;100.00
23899;BME280;20544;50.018;20.010;2023-06-26T03:04:19;98809.34;;;16.20;100.00
23899;BME280;20544;50.018;20.010;2023-06-26T03:07:38;98809.31;;;16.26;100.00
23899;BME280;20544;50.018;20.010;2023-06-26T03:10:56;98813.02;;;16.25;100.00
23899;BME280;20544;50.018;20.010;2023-06-26T03:14:12;98813.82;;;16.26;100.00
23899;BME280;20544;50.018;20.010;2023-06-26T03:17:29;98806.41;;;16.28;100.00
23899;BME280;20544;50.018;20.010;2023-06-26T03:20:48;98810.66;;;16.36;100.00
23899;BME280;20544;50.018;20.010;2023-06-26T03:24:05;98806.95;;;16.37;100.00
23899;BME280;20544;50.018;20.010;2023-06-26T03:27:22;98813.27;;;16.42;100.00
23899;BME280;20544;50.018;20.010;2023-06-26T03:30:40;98807.33;;;16.40;100.00
23899;BME280;20544;50.018;20.010;2023-06-26T03:33:58;98806.88;;;16.43;100.00
23899;BME280;20544;50.018;20.010;2023-06-26T03:37:15;98809.13;;;16.46;100.00
23899;BME280;20544;50.018;20.010;2023-06-26T03:40:31;98820.80;;;16.52;100.00
23899;BME280;20544;50.018;20.010;2023-06-26T03:43:48;98818.89;;;16.59;100.00
23899;BME280;20544;50.018;20.010;2023-06-26T03:47:08;98821.95;;;16.63;100.00
23899;BME280;20544;50.018;20.010;2023-06-26T03:50:26;98814.53;;;16.65;100.00
23899;BME280;20544;50.018;20.010;2023-06-26T03:53:44;98814.02;;;16.75;100.00
23899;BME280;20544;50.018;20.010;2023-06-26T03:57:02;98821.83;;;16.76;100.00
23899;BME280;20544;50.018;20.010;2023-06-26T04:00:20;98817.81;;;16.86;100.00
23899;BME280;20544;50.018;20.010;2023-06-26T04:03:37;98829.73;;;16.90;100.00
23899;BME280;20544;50.018;20.010;2023-06-26T04:06:54;98825.13;;;16.97;100.00
23899;BME280;20544;50.018;20.010;2023-06-26T04:10:15;98826.34;;;17.01;100.00
23899;BME280;20544;50.018;20.010;2023-06-26T04:13:36;98822.98;;;17.06;100.00
23899;BME280;20544;50.018;20.010;2023-06-26T04:16:53;98836.90;;;17.14;100.00
23899;BME280;20544;50.018;20.010;2023-06-26T04:20:12;98830.88;;;17.19;100.00
23899;BME280;20544;50.018;20.010;2023-06-26T04:23:31;98829.98;;;17.25;100.00
23899;BME280;20544;50.018;20.010;2023-06-26T04:26:48;98828.95;;;17.26;100.00
23899;BME280;20544;50.018;20.010;2023-06-26T04:30:08;98833.84;;;17.29;100.00
23899;BME280;20544;50.018;20.010;2023-06-26T04:33:27;98832.14;;;17.35;100.00
23899;BME280;20544;50.018;20.010;2023-06-26T04:36:47;98834.73;;;17.42;100.00
23899;BME280;20544;50.018;20.010;2023-06-26T04:40:05;98842.23;;;17.52;100.00
23899;BME280;20544;50.018;20.010;2023-06-26T04:43:29;98836.20;;;17.56;100.00
23899;BME280;20544;50.018;20.010;2023-06-26T04:46:46;98835.73;;;17.59;100.00
23899;BME280;20544;50.018;20.010;2023-06-26T04:50:03;98835.44;;;17.68;100.00
23899;BME280;20544;50.018;20.010;2023-06-26T04:53:23;98832.22;;;17.77;100.00
23899;BME280;20544;50.018;20.010;2023-06-26T04:56:40;98835.27;;;17.81;100.00
23899;BME280;20544;50.018;20.010;2023-06-26T04:59:58;98840.08;;;17.91;100.00
23899;BME280;20544;50.018;20.010;2023-06-26T05:03:19;98835.48;;;17.98;100.00
23899;BME280;20544;50.018;20.010;2023-06-26T05:06:36;98847.39;;;18.14;100.00
23899;BME280;20544;50.018;20.010;2023-06-26T05:09:53;98841.59;;;18.29;100.00
23899;BME280;20544;50.018;20.010;2023-06-26T05:13:13;98839.02;;;18.34;100.00
23899;BME280;20544;50.018;20.010;2023-06-26T05:16:29;98839.41;;;18.50;100.00
23899;BME280;20544;50.018;20.010;2023-06-26T05:19:46;98840.83;;;18.64;100.00
23899;BME280;20544;50.018;20.010;2023-06-26T05:23:04;98844.55;;;18.75;100.00
23899;BME280;20544;50.018;20.010;2023-06-26T05:26:23;98845.36;;;18.87;100.00
23899;BME280;20544;50.018;20.010;2023-06-26T05:29:42;98840.23;;;18.98;100.00
23899;BME280;20544;50.018;20.010;2023-06-26T05:33:12;98854.27;;;19.12;100.00
23899;BME280;20544;50.018;20.010;2023-06-26T05:36:35;98842.08;;;19.21;100.00
23899;BME280;20544;50.018;20.010;2023-06-26T05:39:56;98849.05;;;19.34;100.00
23899;BME280;20544;50.018;20.010;2023-06-26T05:43:15;98844.46;;;19.46;100.00
23899;BME280;20544;50.018;20.010;2023-06-26T05:46:35;98847.84;;;19.53;100.00
23899;BME280;20544;50.018;20.010;2023-06-26T05:49:58;98847.47;;;19.62;100.00
23899;BME280;20544;50.018;20.010;2023-06-26T06:00:00;98848.72;;;20.00;100.00
23899;BME280;20544;50.018;20.010;2023-06-26T06:03:50;98845.17;;;20.11;100.00
23899;BME280;20544;50.018;20.010;2023-06-26T06:07:07;98845.81;;;20.18;100.00
23899;BME280;20544;50.018;20.010;2023-06-26T06:10:27;98847.78;;;20.23;100.00
23899;BME280;20544;50.018;20.010;2023-06-26T06:13:48;98847.14;;;20.33;100.00
23899;BME280;20544;50.018;20.010;2023-06-26T06:17:05;98845.91;;;20.41;100.00
23899;BME280;20544;50.018;20.010;2023-06-26T06:20:24;98854.65;;;20.48;100.00
23899;BME280;20544;50.018;20.010;2023-06-26T06:23:43;98859.86;;;20.55;100.00
23899;BME280;20544;50.018;20.010;2023-06-26T06:26:58;98860.27;;;20.63;100.00
23899;BME280;20544;50.018;20.010;2023-06-26T06:30:19;98854.39;;;20.83;100.00
23899;BME280;20544;50.018;20.010;2023-06-26T06:33:45;98855.88;;;20.91;100.00
23899;BME280;20544;50.018;20.010;2023-06-26T06:37:06;98849.30;;;21.04;100.00
23899;BME280;20544;50.018;20.010;2023-06-26T06:40:28;98859.66;;;21.12;100.00
23899;BME280;20544;50.018;20.010;2023-06-26T06:43:48;98854.39;;;21.23;100.00
23899;BME280;20544;50.018;20.010;2023-06-26T06:47:06;98862.61;;;21.33;100.00
23899;BME280;20544;50.018;20.010;2023-06-26T06:50:23;98849.44;;;21.37;100.00
23899;BME280;20544;50.018;20.010;2023-06-26T06:53:39;98854.52;;;21.55;100.00
23899;BME280;20544;50.018;20.010;2023-06-26T06:56:56;98850.58;;;21.63;100.00
23899;BME280;20544;50.018;20.010;2023-06-26T07:00:14;98849.88;;;21.73;100.00
23899;BME280;20544;50.018;20.010;2023-06-26T07:03:32;98854.31;;;21.84;100.00
23899;BME280;20544;50.018;20.010;2023-06-26T07:06:49;98858.25;;;21.98;100.00
23899;BME280;20544;50.018;20.010;2023-06-26T07:10:08;98852.37;;;22.07;100.00
23899;BME280;20544;50.018;20.010;2023-06-26T07:13:26;98850.80;;;22.11;100.00
23899;BME280;20544;50.018;20.010;2023-06-26T07:16:45;98856.81;;;22.18;100.00
23899;BME280;20544;50.018;20.010;2023-06-26T07:20:01;98856.37;;;22.32;100.00
23899;BME280;20544;50.018;20.010;2023-06-26T07:23:23;98860.27;;;22.41;100.00
23899;BME280;20544;50.018;20.010;2023-06-26T07:26:40;98865.34;;;22.70;100.00
23899;BME280;20544;50.018;20.010;2023-06-26T07:29:56;98854.12;;;22.88;100.00
23899;BME280;20544;50.018;20.010;2023-06-26T07:33:13;98853.90;;;23.00;100.00
23899;BME280;20544;50.018;20.010;2023-06-26T07:36:30;98862.14;;;23.16;100.00
23899;BME280;20544;50.018;20.010;2023-06-26T07:39:48;98853.48;;;23.19;100.00
23899;BME280;20544;50.018;20.010;2023-06-26T07:43:05;98854.91;;;23.32;100.00
23899;BME280;20544;50.018;20.010;2023-06-26T07:46:25;98851.98;;;23.49;100.00
23899;BME280;20544;50.018;20.010;2023-06-26T07:49:40;98855.06;;;23.83;100.00
23899;BME280;20544;50.018;20.010;2023-06-26T07:52:57;98858.66;;;24.10;100.00
23899;BME280;20544;50.018;20.010;2023-06-26T07:56:17;98858.94;;;24.49;100.00
23899;BME280;20544;50.018;20.010;2023-06-26T07:59:34;98869.17;;;25.09;100.00
23899;BME280;20544;50.018;20.010;2023-06-26T08:02:51;98872.83;;;25.60;100.00
23899;BME280;20544;50.018;20.010;2023-06-26T08:06:09;98868.48;;;26.09;100.00
23899;BME280;20544;50.018;20.010;2023-06-26T08:09:28;98869.30;;;26.44;100.00
23899;BME280;20544;50.018;20.010;2023-06-26T08:12:47;98874.22;;;26.71;100.00
23899;BME280;20544;50.018;20.010;2023-06-26T08:16:06;98867.97;;;27.00;100.00
23899;BME280;20544;50.018;20.010;2023-06-26T08:19:23;98866.53;;;27.32;100.00
23899;BME280;20544;50.018;20.010;2023-06-26T08:22:39;98863.83;;;27.75;100.00
23899;BME280;20544;50.018;20.010;2023-06-26T08:25:57;98878.09;;;27.86;100.00
23899;BME280;20544;50.018;20.010;2023-06-26T08:29:16;98864.05;;;28.17;100.00
23899;BME280;20544;50.018;20.010;2023-06-26T08:32:33;98868.14;;;28.67;100.00
23899;BME280;20544;50.018;20.010;2023-06-26T08:35:52;98871.74;;;28.81;97.75
23899;BME280;20544;50.018;20.010;2023-06-26T08:39:21;98879.22;;;29.03;99.47
23899;BME280;20544;50.018;20.010;2023-06-26T08:42:38;98877.21;;;29.65;98.48
23899;BME280;20544;50.018;20.010;2023-06-26T08:45:58;98874.81;;;30.00;97.12
23899;BME280;20544;50.018;20.010;2023-06-26T08:49:25;98869.92;;;30.33;95.68
23899;BME280;20544;50.018;20.010;2023-06-26T08:52:48;98883.84;;;30.46;96.37
23899;BME280;20544;50.018;20.010;2023-06-26T08:56:09;98874.20;;;30.71;94.89
23899;BME280;20544;50.018;20.010;2023-06-26T08:59:27;98869.77;;;30.93;94.76
23899;BME280;20544;50.018;20.010;2023-06-26T09:02:46;98872.58;;;31.51;93.59
23899;BME280;20544;50.018;20.010;2023-06-26T09:06:05;98875.05;;;31.70;92.76
23899;BME280;20544;50.018;20.010;2023-06-26T09:09:19;98865.95;;;31.03;93.46
23899;BME280;20544;50.018;20.010;2023-06-26T09:12:37;98864.18;;;30.66;92.93
23899;BME280;20544;50.018;20.010;2023-06-26T09:15:55;98863.11;;;30.76;92.76
23899;BME280;20544;50.018;20.010;2023-06-26T09:19:13;98854.59;;;31.09;92.52
23899;BME280;20544;50.018;20.010;2023-06-26T09:22:32;98860.95;;;30.96;94.43
23899;BME280;20544;50.018;20.010;2023-06-26T09:25:50;98853.23;;;30.98;95.19
23899;BME280;20544;50.018;20.010;2023-06-26T09:29:11;98855.63;;;31.40;95.84
23899;BME280;20544;50.018;20.010;2023-06-26T09:32:28;98851.80;;;31.01;94.74
23899;BME280;20544;50.018;20.010;2023-06-26T09:35:47;98851.06;;;31.18;96.54
23899;BME280;20544;50.018;20.010;2023-06-26T09:39:07;98857.73;;;31.34;95.93
23899;BME280;20544;50.018;20.010;2023-06-26T09:42:25;98852.88;;;31.31;95.58
23899;BME280;20544;50.018;20.010;2023-06-26T09:45:40;98844.88;;;31.03;95.91
23899;BME280;20544;50.018;20.010;2023-06-26T09:48:59;98841.17;;;30.68;94.09
23899;BME280;20544;50.018;20.010;2023-06-26T09:52:17;98835.80;;;30.31;95.00
23899;BME280;20544;50.018;20.010;2023-06-26T09:55:33;98825.34;;;30.33;97.33
23899;BME280;20544;50.018;20.010;2023-06-26T09:58:50;98830.20;;;30.36;96.90
23899;BME280;20544;50.018;20.010;2023-06-26T10:02:04;98825.87;;;30.12;96.47
23899;BME280;20544;50.018;20.010;2023-06-26T10:05:19;98821.39;;;29.94;98.95
23899;BME280;20544;50.018;20.010;2023-06-26T10:08:33;98818.88;;;29.83;97.64
23899;BME280;20544;50.018;20.010;2023-06-26T10:11:51;98815.04;;;29.20;99.38
23899;BME280;20544;50.018;20.010;2023-06-26T10:15:07;98806.66;;;29.30;100.00
23899;BME280;20544;50.018;20.010;2023-06-26T10:18:24;98804.13;;;29.34;100.00
23899;BME280;20544;50.018;20.010;2023-06-26T10:21:38;98798.15;;;29.18;98.91
23899;BME280;20544;50.018;20.010;2023-06-26T10:24:53;98805.40;;;29.50;99.71
23899;BME280;20544;50.018;20.010;2023-06-26T10:28:10;98793.48;;;29.18;100.00
23899;BME280;20544;50.018;20.010;2023-06-26T10:31:26;98791.89;;;28.76;99.74
23899;BME280;20544;50.018;20.010;2023-06-26T10:34:42;98787.61;;;28.55;100.00
23899;BME280;20544;50.018;20.010;2023-06-26T10:38:01;98782.70;;;28.24;100.00
23899;BME280;20544;50.018;20.010;2023-06-26T10:41:17;98770.83;;;27.82;100.00
23899;BME280;20544;50.018;20.010;2023-06-26T10:44:41;98762.98;;;27.62;100.00
23899;BME280;20544;50.018;20.010;2023-06-26T10:47:56;98773.88;;;27.62;100.00
23899;BME280;20544;50.018;20.010;2023-06-26T10:51:14;98772.75;;;27.82;100.00
23899;BME280;20544;50.018;20.010;2023-06-26T10:54:30;98782.20;;;28.03;100.00
23899;BME280;20544;50.018;20.010;2023-06-26T10:57:46;98768.83;;;28.07;100.00
23899;BME280;20544;50.018;20.010;2023-06-26T11:01:18;98764.19;;;27.88;100.00
23899;BME280;20544;50.018;20.010;2023-06-26T11:04:40;98761.75;;;28.06;100.00
23899;BME280;20544;50.018;20.010;2023-06-26T11:08:08;98759.36;;;28.18;100.00
23899;BME280;20544;50.018;20.010;2023-06-26T11:11:54;98756.23;;;27.92;99.00
23899;BME280;20544;50.018;20.010;2023-06-26T11:14:54;98751.65;;;27.54;100.00
23899;BME280;20544;50.018;20.010;2023-06-26T11:18:08;98756.84;;;27.70;100.00
23899;BME280;20544;50.018;20.010;2023-06-26T11:21:25;98759.70;;;27.79;100.00
23899;BME280;20544;50.018;20.010;2023-06-26T11:24:40;98753.95;;;27.80;100.00
23899;BME280;20544;50.018;20.010;2023-06-26T11:31:16;98762.59;;;27.68;100.00
23899;BME280;20544;50.018;20.010;2023-06-26T11:34:38;98754.56;;;27.77;100.00
23899;BME280;20544;50.018;20.010;2023-06-26T11:37:56;98754.05;;;27.75;100.00
23899;BME280;20544;50.018;20.010;2023-06-26T11:44:30;98753.19;;;27.60;100.00
23899;BME280;20544;50.018;20.010;2023-06-26T11:47:44;98750.11;;;27.48;100.00
23899;BME280;20544;50.018;20.010;2023-06-26T11:50:58;98751.82;;;27.39;100.00
23899;BME280;20544;50.018;20.010;2023-06-26T11:54:12;98755.07;;;27.22;100.00
23899;BME280;20544;50.018;20.010;2023-06-26T11:57:26;98747.39;;;27.05;100.00
23899;BME280;20544;50.018;20.010;2023-06-26T12:00:42;98738.47;;;26.99;100.00
23899;BME280;20544;50.018;20.010;2023-06-26T12:03:58;98736.71;;;26.89;100.00
23899;BME280;20544;50.018;20.010;2023-06-26T12:07:13;98734.39;;;26.77;100.00
23899;BME280;20544;50.018;20.010;2023-06-26T12:10:30;98727.96;;;26.68;100.00
23899;BME280;20544;50.018;20.010;2023-06-26T12:13:44;98723.61;;;26.67;100.00
23899;BME280;20544;50.018;20.010;2023-06-26T12:17:07;98732.06;;;26.66;100.00
23899;BME280;20544;50.018;20.010;2023-06-26T12:20:23;98725.23;;;26.68;100.00
23899;BME280;20544;50.018;20.010;2023-06-26T12:23:40;98716.38;;;26.57;100.00
23899;BME280;20544;50.018;20.010;2023-06-26T12:30:12;98710.66;;;26.35;100.00
23899;BME280;20544;50.018;20.010;2023-06-26T12:33:27;98715.50;;;26.38;100.00
23899;BME280;20544;50.018;20.010;2023-06-26T12:36:41;98701.91;;;26.38;100.00
23899;BME280;20544;50.018;20.010;2023-06-26T12:39:58;98706.55;;;26.37;100.00
23899;BME280;20544;50.018;20.010;2023-06-26T12:43:23;98703.47;;;26.44;100.00
23899;BME280;20544;50.018;20.010;2023-06-26T12:46:37;98696.65;;;26.46;100.00
23899;BME280;20544;50.018;20.010;2023-06-26T12:49:52;98696.58;;;26.52;100.00
23899;BME280;20544;50.018;20.010;2023-06-26T12:53:07;98696.81;;;26.55;100.00
23899;BME280;20544;50.018;20.010;2023-06-26T12:56:22;98692.20;;;26.56;100.00
23899;BME280;20544;50.018;20.010;2023-06-26T13:01:35;98683.75;;;26.57;100.00
23899;BME280;20544;50.018;20.010;2023-06-26T13:04:53;98679.64;;;26.60;100.00
23899;BME280;20544;50.018;20.010;2023-06-26T13:08:09;98681.33;;;26.56;100.00
23899;BME280;20544;50.018;20.010;2023-06-26T13:17:08;98669.29;;;26.38;100.00
23899;BME280;20544;50.018;20.010;2023-06-26T13:20:23;98665.48;;;26.39;100.00
23899;BME280;20544;50.018;20.010;2023-06-26T13:23:39;98663.21;;;26.22;100.00
23899;BME280;20544;50.018;20.010;2023-06-26T13:30:25;98658.55;;;26.27;100.00
23899;BME280;20544;50.018;20.010;2023-06-26T13:33:44;98653.67;;;26.24;100.00
23899;BME280;20544;50.018;20.010;2023-06-26T13:37:12;98657.95;;;26.30;100.00
23899;BME280;20544;50.018;20.010;2023-06-26T13:40:28;98651.13;;;26.33;100.00
23899;BME280;20544;50.018;20.010;2023-06-26T13:43:55;98646.84;;;26.27;100.00
23899;BME280;20544;50.018;20.010;2023-06-26T13:47:18;98644.95;;;26.27;100.00
23899;BME280;20544;50.018;20.010;2023-06-26T13:50:50;98636.56;;;26.24;100.00
23899;BME280;20544;50.018;20.010;2023-06-26T13:54:05;98635.77;;;26.23;100.00
23899;BME280;20544;50.018;20.010;2023-06-26T13:57:34;98629.51;;;26.23;100.00
23899;BME280;20544;50.018;20.010;2023-06-26T14:00:56;98624.90;;;26.23;100.00
23899;BME280;20544;50.018;20.010;2023-06-26T14:04:11;98627.09;;;26.21;100.00
23899;BME280;20544;50.018;20.010;2023-06-26T14:07:29;98624.90;;;26.23;100.00
23899;BME280;20544;50.018;20.010;2023-06-26T14:11:06;98619.67;;;26.27;100.00
23899;BME280;20544;50.018;20.010;2023-06-26T14:14:29;98613.38;;;26.31;100.00
23899;BME280;20544;50.018;20.010;2023-06-26T14:17:43;98613.80;;;26.20;100.00
23899;BME280;20544;50.018;20.010;2023-06-26T14:21:03;98610.25;;;26.19;100.00
23899;BME280;20544;50.018;20.010;2023-06-26T14:24:18;98611.14;;;26.14;100.00
23899;BME280;20544;50.018;20.010;2023-06-26T14:27:33;98607.06;;;26.12;100.00
23899;BME280;20544;50.018;20.010;2023-06-26T14:30:47;98605.83;;;25.99;100.00
23899;BME280;20544;50.018;20.010;2023-06-26T14:34:01;98594.11;;;26.04;100.00
23899;BME280;20544;50.018;20.010;2023-06-26T14:37:17;98595.20;;;26.03;100.00
23899;BME280;20544;50.018;20.010;2023-06-26T14:40:33;98575.41;;;25.97;100.00
23899;BME280;20544;50.018;20.010;2023-06-26T14:43:48;98586.75;;;26.04;100.00
23899;BME280;20544;50.018;20.010;2023-06-26T14:47:03;98583.50;;;26.07;100.00
23899;BME280;20544;50.018;20.010;2023-06-26T14:50:18;98570.42;;;26.09;100.00
23899;BME280;20544;50.018;20.010;2023-06-26T14:53:34;98572.08;;;26.05;100.00
23899;BME280;20544;50.018;20.010;2023-06-26T14:56:51;98575.89;;;26.04;100.00
23899;BME280;20544;50.018;20.010;2023-06-26T15:00:11;98567.23;;;26.02;100.00
23899;BME280;20544;50.018;20.010;2023-06-26T15:03:29;98572.64;;;26.07;100.00
23899;BME280;20544;50.018;20.010;2023-06-26T15:06:47;98559.55;;;26.09;100.00
23899;BME280;20544;50.018;20.010;2023-06-26T15:10:01;98554.95;;;26.10;100.00
23899;BME280;20544;50.018;20.010;2023-06-26T15:16:34;98553.91;;;26.06;100.00
23899;BME280;20544;50.018;20.010;2023-06-26T15:19:51;98546.83;;;26.05;100.00
23899;BME280;20544;50.018;20.010;2023-06-26T15:23:07;98547.92;;;26.04;100.00
23899;BME280;20544;50.018;20.010;2023-06-26T15:26:20;98547.69;;;26.00;100.00
23899;BME280;20544;50.018;20.010;2023-06-26T15:29:34;98549.88;;;25.98;100.00
23899;BME280;20544;50.018;20.010;2023-06-26T15:32:48;98540.41;;;25.95;100.00
23899;BME280;20544;50.018;20.010;2023-06-26T15:36:02;98538.58;;;25.91;100.00
23899;BME280;20544;50.018;20.010;2023-06-26T15:39:17;98538.34;;;25.87;100.00
23899;BME280;20544;50.018;20.010;2023-06-26T15:42:31;98535.95;;;25.80;100.00
23899;BME280;20544;50.018;20.010;2023-06-26T15:45:47;98527.57;;;25.77;100.00
23899;BME280;20544;50.018;20.010;2023-06-26T15:49:01;98529.84;;;25.70;100.00
23899;BME280;20544;50.018;20.010;2023-06-26T15:52:17;98520.13;;;25.63;100.00
23899;BME280;20544;50.018;20.010;2023-06-26T15:55:31;98527.16;;;25.64;100.00
23899;BME280;20544;50.018;20.010;2023-06-26T16:02:02;98521.84;;;25.54;100.00
23899;BME280;20544;50.018;20.010;2023-06-26T16:05:17;98509.71;;;25.46;100.00
23899;BME280;20544;50.018;20.010;2023-06-26T16:08:32;98519.98;;;25.49;100.00
23899;BME280;20544;50.018;20.010;2023-06-26T16:11:47;98510.00;;;25.45;100.00
23899;BME280;20544;50.018;20.010;2023-06-26T16:18:16;98500.82;;;25.35;100.00
23899;BME280;20544;50.018;20.010;2023-06-26T16:21:33;98501.11;;;25.34;100.00
23899;BME280;20544;50.018;20.010;2023-06-26T16:24:49;98494.36;;;25.31;100.00
23899;BME280;20544;50.018;20.010;2023-06-26T16:28:03;98496.30;;;25.26;100.00
23899;BME280;20544;50.018;20.010;2023-06-26T16:31:17;98490.63;;;25.22;100.00
23899;BME280;20544;50.018;20.010;2023-06-26T16:34:31;98494.97;;;25.23;100.00
23899;BME280;20544;50.018;20.010;2023-06-26T16:37:46;98489.53;;;25.23;100.00
23899;BME280;20544;50.018;20.010;2023-06-26T16:41:00;98481.94;;;25.25;100.00
23899;BME280;20544;50.018;20.010;2023-06-26T16:44:14;98479.52;;;25.24;100.00
23899;BME280;20544;50.018;20.010;2023-06-26T16:47:28;98475.28;;;25.12;100.00
23899;BME280;20544;50.018;20.010;2023-06-26T16:50:44;98469.66;;;25.03;100.00
23899;BME280;20544;50.018;20.010;2023-06-26T16:53:59;98464.55;;;24.97;100.00
23899;BME280;20544;50.018;20.010;2023-06-26T16:57:14;98468.69;;;24.89;100.00
23899;BME280;20544;50.018;20.010;2023-06-26T17:03:43;98467.80;;;24.99;100.00
23899;BME280;20544;50.018;20.010;2023-06-26T17:06:59;98465.88;;;24.99;100.00
23899;BME280;20544;50.018;20.010;2023-06-26T17:10:13;98468.84;;;25.03;100.00
23899;BME280;20544;50.018;20.010;2023-06-26T17:16:42;98480.53;;;24.98;100.00
23899;BME280;20544;50.018;20.010;2023-06-26T17:19:57;98477.81;;;24.98;100.00
23899;BME280;20544;50.018;20.010;2023-06-26T17:23:16;98472.69;;;24.97;100.00
23899;BME280;20544;50.018;20.010;2023-06-26T17:26:30;98483.58;;;24.92;100.00
23899;BME280;20544;50.018;20.010;2023-06-26T17:29:44;98479.78;;;24.93;100.00
23899;BME280;20544;50.018;20.010;2023-06-26T17:32:58;98481.41;;;24.94;100.00
23899;BME280;20544;50.018;20.010;2023-06-26T17:36:14;98486.34;;;24.86;100.00
23899;BME280;20544;50.018;20.010;2023-06-26T17:39:28;98480.13;;;24.81;100.00
23899;BME280;20544;50.018;20.010;2023-06-26T17:42:42;98486.42;;;24.76;100.00
23899;BME280;20544;50.018;20.010;2023-06-26T17:47:36;98481.30;;;24.69;100.00